createdAt,value
2023-02-03T12:21:54.483Z,90.69
2023-02-03T12:24:55.732Z,90.01
2023-02-03T12:27:54.484Z,89.05
2023-02-03T12:30:30.301Z,88.53
2023-02-03T12:33:12.192Z,88.25
2023-02-03T12:36:07.795Z,88.09
2023-02-03T12:39:12.015Z,88.04
2023-02-03T12:41:47.671Z,87.99
2023-02-03T12:44:40.023Z,88.07
2023-02-03T12:47:17.957Z,88.08
2023-02-03T12:49:58.796Z,87.96
2023-02-03T12:52:43.756Z,87.95
2023-02-03T12:55:46.332Z,87.95
2023-02-03T12:58:40.111Z,87.99
2023-02-03T13:01:24.751Z,87.96
2023-02-03T13:03:58.329Z,88.04
2023-02-03T13:06:44.045Z,88.19
2023-02-03T13:09:48.066Z,88.36
2023-02-03T13:12:35.175Z,88.41
2023-02-03T13:15:24.130Z,88.34
2023-02-03T13:18:05.323Z,88.19
2023-02-03T13:20:39.736Z,88.21
2023-02-03T13:23:25.156Z,88.34
2023-02-03T13:26:14.107Z,88.36
2023-02-03T13:29:15.240Z,88.25
2023-02-03T13:32:00.345Z,88.33
2023-02-03T13:34:53.523Z,88.36
2023-02-03T13:38:17.664Z,87.89
2023-02-03T13:41:02.119Z,87.33
2023-02-03T13:43:39.457Z,86.83
2023-02-03T13:46:19.651Z,86.00
2023-02-03T13:48:53.315Z,84.01
2023-02-03T13:51:29.411Z,83.32
2023-02-03T13:54:14.899Z,83.03
2023-02-03T13:56:56.538Z,82.81
2023-02-03T13:59:39.181Z,82.86
2023-02-03T14:02:20.254Z,83.09
2023-02-03T14:04:49.439Z,83.16
2023-02-03T14:07:24.997Z,83.06
2023-02-03T14:10:13.774Z,82.75
2023-02-03T14:12:52.074Z,81.78
2023-02-03T14:15:32.389Z,81.71
2023-02-03T14:18:26.202Z,82.16
2023-02-03T14:21:09.041Z,82.08
2023-02-03T14:23:46.048Z,81.86
2023-02-03T14:26:31.491Z,82.08
2023-02-03T14:29:11.862Z,82.04
2023-02-03T14:31:56.766Z,81.94
2023-02-03T14:34:30.161Z,82.29
2023-02-03T14:37:16.613Z,82.51
2023-02-03T14:40:26.370Z,83.01
2023-02-03T14:43:20.263Z,83.25
2023-02-03T14:45:55.314Z,82.72
2023-02-03T14:48:52.845Z,82.60
2023-02-03T14:51:52.980Z,82.69
2023-02-03T14:54:44.370Z,82.83
2023-02-03T14:57:40.124Z,82.89
2023-02-03T15:00:25.793Z,83.07
2023-02-03T15:03:15.563Z,82.96
2023-02-03T15:05:47.277Z,83.02
2023-02-03T15:08:40.894Z,82.67
2023-02-03T15:11:30.471Z,82.39
2023-02-03T15:14:25.477Z,81.98
2023-02-03T15:17:14.029Z,81.62
2023-02-03T15:19:43.535Z,81.72
2023-02-03T15:22:40.472Z,81.66
2023-02-03T15:25:22.267Z,81.56
2023-02-03T15:27:54.414Z,81.26
2023-02-03T15:30:28.139Z,81.31
2023-02-03T15:33:08.496Z,81.48
2023-02-03T15:35:42.598Z,81.60
2023-02-03T15:38:19.116Z,81.65
2023-02-03T15:40:51.875Z,81.77
2023-02-03T15:43:38.487Z,81.98
2023-02-03T15:46:24.711Z,81.96
2023-02-03T15:49:09.022Z,82.08
2023-02-03T15:51:50.657Z,82.17
2023-02-03T15:54:33.593Z,82.18
2023-02-03T15:57:15.421Z,81.65
2023-02-03T15:59:53.908Z,81.08
2023-02-03T16:02:30.760Z,80.51
2023-02-03T16:05:28.112Z,80.15
2023-02-03T16:08:17.213Z,79.33
2023-02-03T16:10:46.192Z,77.88
2023-02-03T16:13:24.442Z,77.57
2023-02-03T16:16:06.239Z,78.02
2023-02-03T16:18:40.326Z,77.99
2023-02-03T16:21:35.619Z,77.73
2023-02-03T16:24:06.938Z,77.72
2023-02-03T16:26:38.832Z,77.85
2023-02-03T16:29:36.412Z,78.21
2023-02-03T16:32:38.336Z,78.46
2023-02-03T16:35:29.749Z,78.62
2023-02-03T16:38:32.939Z,78.88
2023-02-03T16:41:39.384Z,79.30
2023-02-03T16:44:30.869Z,79.59
2023-02-03T16:47:25.647Z,79.83
2023-02-03T16:53:49.355Z,80.17
2023-02-03T16:56:20.172Z,80.14
2023-02-03T16:58:49.622Z,80.46
2023-02-03T17:01:25.738Z,80.41
2023-02-03T17:03:56.530Z,80.32
2023-02-03T17:06:25.708Z,80.47
2023-02-03T17:08:56.646Z,80.62
2023-02-03T17:11:29.374Z,80.50
2023-02-03T17:13:58.751Z,80.34
2023-02-03T17:16:28.790Z,80.34
2023-02-03T17:18:57.949Z,80.19
2023-02-03T17:21:29.148Z,80.46
2023-02-03T17:24:01.206Z,80.52
2023-02-03T17:26:30.269Z,80.70
2023-02-03T17:29:05.305Z,80.54
2023-02-03T17:31:34.665Z,80.67
2023-02-03T17:34:06.613Z,80.84
2023-02-03T17:36:36.581Z,80.91
2023-02-03T17:55:34.223Z,80.84
2023-02-03T17:58:04.504Z,80.47
2023-02-03T18:00:33.876Z,80.58
2023-02-03T18:03:03.995Z,80.73
2023-02-03T18:05:33.206Z,80.56
2023-02-03T18:08:09.043Z,80.61
2023-02-03T18:10:45.878Z,80.47
2023-02-03T18:13:14.735Z,80.37
2023-02-03T18:15:43.881Z,80.20
2023-02-03T18:18:13.900Z,80.12
2023-02-03T18:20:43.514Z,79.84
2023-02-03T18:23:13.087Z,79.75
2023-02-03T18:25:42.554Z,79.74
2023-02-03T18:28:12.657Z,79.82
2023-02-03T18:30:42.347Z,79.85
2023-02-03T18:33:12.019Z,80.16
2023-02-03T18:35:45.400Z,80.41
2023-02-03T18:38:22.321Z,80.66
2023-02-03T18:41:00.389Z,80.78
2023-02-03T18:43:36.686Z,80.75
2023-02-03T18:46:10.463Z,80.44
2023-02-03T18:49:03.561Z,80.61
2023-02-03T18:51:36.423Z,80.79
2023-02-03T18:54:15.724Z,80.53
2023-02-03T18:57:15.355Z,80.29
2023-02-03T18:59:50.080Z,80.17
2023-02-03T19:02:26.274Z,80.12
2023-02-03T19:05:03.674Z,80.25
2023-02-03T19:07:36.790Z,80.22
2023-02-03T19:10:06.252Z,80.34
2023-02-03T19:12:35.202Z,80.49
2023-02-03T19:15:05.484Z,80.44
2023-02-03T19:17:35.086Z,80.40
2023-02-03T19:20:06.332Z,80.41
2023-02-03T19:22:36.109Z,80.53
2023-02-03T19:25:06.224Z,80.62
2023-02-03T19:27:37.606Z,80.97
2023-02-03T19:30:15.996Z,81.00
2023-02-03T19:32:50.352Z,81.03
2023-02-03T19:35:35.162Z,81.29
2023-02-03T19:38:07.917Z,81.76
2023-02-03T19:40:38.978Z,82.04
2023-02-03T19:43:16.364Z,82.29
2023-02-03T19:46:18.218Z,82.35
2023-02-03T19:48:57.199Z,82.44
2023-02-03T19:51:41.391Z,82.64
2023-02-03T19:54:18.075Z,82.95
2023-02-03T19:57:00.016Z,83.13
2023-02-03T19:59:35.324Z,83.18
2023-02-03T20:02:14.344Z,83.36
2023-02-03T20:04:53.039Z,83.45
2023-02-03T20:07:34.668Z,83.57
2023-02-03T20:10:04.280Z,83.69
2023-02-03T20:12:34.324Z,83.80
2023-02-03T20:15:04.044Z,84.01
2023-02-03T20:17:33.799Z,84.12
2023-02-03T20:20:23.839Z,84.46
2023-02-03T20:22:53.873Z,84.81
2023-02-03T20:25:24.031Z,84.92
2023-02-03T20:27:54.212Z,85.09
2023-02-03T20:30:23.277Z,85.14
2023-02-03T20:32:55.195Z,85.19
2023-02-03T20:35:25.788Z,85.38
2023-02-03T20:37:55.942Z,85.45
2023-02-03T20:40:26.955Z,85.64
2023-02-03T20:43:06.623Z,85.63
2023-02-03T20:45:38.652Z,85.67
2023-02-03T20:48:12.695Z,85.70
2023-02-03T20:50:50.577Z,85.87
2023-02-03T20:53:23.156Z,85.95
2023-02-03T20:55:59.115Z,86.12
2023-02-03T20:58:35.926Z,86.16
2023-02-03T21:01:14.665Z,86.17
2023-02-03T21:04:02.545Z,86.08
2023-02-03T21:06:35.922Z,85.95
2023-02-03T21:09:19.265Z,86.02
2023-02-03T21:11:48.777Z,86.22
2023-02-03T21:14:20.959Z,86.34
2023-02-03T21:16:50.529Z,86.42
2023-02-03T21:19:32.924Z,86.59
2023-02-03T21:22:16.083Z,86.58
2023-02-03T21:24:50.031Z,86.65
2023-02-03T21:27:30.162Z,86.76
2023-02-03T21:30:01.455Z,86.73
2023-02-03T21:32:41.532Z,86.70
2023-02-03T21:35:32.427Z,86.51
2023-02-03T21:38:32.483Z,86.64
2023-02-03T21:41:02.477Z,86.72
2023-02-03T21:43:33.574Z,86.74
2023-02-03T21:46:05.900Z,86.81
2023-02-03T21:48:41.922Z,87.01
2023-02-03T21:51:20.909Z,87.00
2023-02-03T21:54:03.508Z,87.06
2023-02-03T21:56:42.030Z,86.95
2023-02-03T21:59:23.290Z,86.88
2023-02-03T22:02:02.694Z,86.91
2023-02-03T22:04:32.652Z,86.85
2023-02-03T22:07:01.640Z,86.91
2023-02-03T22:09:33.494Z,86.98
2023-02-03T22:12:02.387Z,86.86
2023-02-03T22:14:31.477Z,86.74
2023-02-03T22:17:00.689Z,86.36
2023-02-03T22:19:50.469Z,86.30
2023-02-03T22:22:21.501Z,86.31
2023-02-03T22:24:51.524Z,86.18
2023-02-03T22:27:20.919Z,86.21
2023-02-03T22:29:52.349Z,86.08
2023-02-03T22:32:26.595Z,86.10
2023-02-03T22:34:58.858Z,86.01
2023-02-03T22:37:33.231Z,86.06
2023-02-03T22:40:05.110Z,85.93
2023-02-03T22:42:36.282Z,85.90
2023-02-03T22:45:05.898Z,85.94
2023-02-03T22:47:34.911Z,86.05
2023-02-03T22:50:05.568Z,85.74
2023-02-03T22:52:34.500Z,85.71
2023-02-03T22:55:04.113Z,85.95
2023-02-03T22:57:33.330Z,85.89
2023-02-03T23:00:02.314Z,85.71
2023-02-03T23:02:34.566Z,85.82
2023-02-03T23:05:03.724Z,85.79
2023-02-03T23:07:32.455Z,85.85
2023-02-03T23:10:01.387Z,86.06
2023-02-03T23:12:37.819Z,86.42
2023-02-03T23:15:09.944Z,86.51
2023-02-03T23:17:41.646Z,86.68
2023-02-03T23:20:15.361Z,86.90
2023-02-03T23:22:44.952Z,87.13
2023-02-03T23:25:13.630Z,87.29
2023-02-03T23:27:45.288Z,87.18
2023-02-03T23:30:16.540Z,87.33
2023-02-03T23:32:45.067Z,87.40
2023-02-03T23:35:32.483Z,87.60
2023-02-03T23:38:00.896Z,87.89
2023-02-03T23:40:32.304Z,87.93
2023-02-03T23:43:01.281Z,88.22
2023-02-03T23:45:29.964Z,87.91
2023-02-03T23:48:02.838Z,87.92
2023-02-03T23:50:40.048Z,88.13
2023-02-03T23:53:10.345Z,86.91
2023-02-03T23:55:41.282Z,85.57
2023-02-03T23:58:13.240Z,85.70
